createdAt,value
2019-01-02T00:00:12.396Z,1.70
2019-01-02T00:03:15.490Z,1.92
2019-01-02T00:06:18.220Z,2.00
2019-01-02T00:09:22.793Z,1.37
2019-01-02T00:12:25.321Z,1.20
2019-01-02T00:15:28.106Z,1.87
2019-01-02T00:18:30.898Z,1.22
2019-01-02T00:21:34.448Z,1.35
2019-01-02T00:24:38.248Z,1.47
2019-01-02T00:27:49.479Z,1.20
2019-01-02T00:30:52.265Z,1.10
2019-01-02T00:33:56.070Z,1.12
2019-01-02T00:36:54.772Z,1.60
2019-01-02T00:39:57.287Z,1.35
2019-01-02T00:43:01.097Z,1.65
2019-01-02T00:46:04.136Z,1.60
2019-01-02T00:49:08.198Z,1.27
2019-01-02T00:52:10.983Z,1.55
2019-01-02T00:55:13.514Z,1.72
2019-01-02T00:58:16.040Z,1.35
2019-01-02T01:01:18.571Z,1.57
2019-01-02T01:04:21.096Z,1.82
2019-01-02T01:07:26.023Z,1.55
2019-01-02T01:10:27.688Z,1.85
2019-01-02T01:13:31.244Z,1.65
2019-01-02T01:16:34.025Z,1.20
2019-01-02T01:19:37.064Z,1.90
2019-01-02T01:22:40.617Z,1.12
2019-01-02T01:25:43.404Z,1.98
2019-01-02T01:28:48.745Z,1.70
2019-01-02T01:31:51.528Z,1.32
2019-01-02T01:34:54.063Z,1.15
2019-01-02T01:37:56.844Z,1.35
2019-01-02T01:40:59.883Z,1.22
2019-01-02T01:43:59.336Z,1.55
2019-01-02T01:47:02.120Z,1.40
2019-01-02T01:50:05.162Z,1.50
2019-01-02T01:53:07.686Z,1.30
2019-01-02T01:56:10.476Z,1.52
2019-01-02T01:59:13.511Z,1.37
2019-01-02T02:02:17.323Z,1.50
2019-01-02T02:05:19.860Z,1.47
2019-01-02T02:08:22.377Z,1.75
2019-01-02T02:11:25.162Z,1.90
2019-01-02T02:14:28.455Z,1.30
2019-01-02T02:17:30.985Z,1.70
2019-01-02T02:20:33.769Z,2.33
2019-01-02T02:23:37.576Z,1.77
2019-01-02T02:26:40.363Z,1.50
2019-01-02T02:29:42.887Z,1.30
2019-01-02T02:32:45.671Z,1.02
2019-01-02T02:35:50.505Z,1.55
2019-01-02T02:38:53.030Z,1.20
2019-01-02T02:41:55.560Z,1.27
2019-01-02T02:44:58.087Z,1.30
2019-01-02T02:48:02.151Z,1.65
2019-01-02T02:51:04.424Z,1.72
2019-01-02T02:54:07.210Z,1.67
2019-01-02T02:57:09.990Z,1.57
2019-01-02T03:00:12.523Z,1.42
2019-01-02T03:03:15.047Z,1.72
2019-01-02T03:06:17.576Z,1.72
2019-01-02T03:09:20.362Z,1.45
2019-01-02T03:12:23.145Z,1.35
2019-01-02T03:15:26.184Z,1.70
2019-01-02T03:18:28.966Z,1.98
2019-01-02T03:21:31.498Z,1.50
2019-01-02T03:24:34.538Z,1.75
2019-01-02T03:27:37.065Z,1.65
2019-01-02T03:30:40.871Z,2.02
2019-01-02T03:33:43.660Z,1.50
2019-01-02T03:36:46.441Z,1.52
2019-01-02T03:39:49.228Z,2.12
2019-01-02T03:42:52.263Z,1.25
2019-01-02T03:45:56.074Z,1.82
2019-01-02T03:49:00.391Z,1.42
2019-01-02T03:52:03.176Z,1.98
2019-01-02T03:55:05.959Z,1.40
2019-01-02T03:58:09.002Z,1.67
2019-01-02T04:01:11.787Z,1.80
2019-01-02T04:04:15.606Z,1.37
2019-01-02T04:07:20.439Z,1.35
2019-01-02T04:10:22.952Z,2.30
2019-01-02T04:13:26.508Z,1.85
2019-01-02T04:16:29.546Z,1.72
2019-01-02T04:19:32.845Z,1.32
2019-01-02T04:22:35.109Z,1.70
2019-01-02T04:25:38.679Z,1.85
2019-01-02T04:28:41.453Z,1.80
2019-01-02T04:31:44.488Z,1.55
2019-01-02T04:34:47.017Z,1.90
2019-01-02T04:37:49.800Z,1.65
2019-01-02T04:40:52.332Z,1.80
2019-01-02T04:43:51.022Z,1.77
2019-01-02T04:46:53.544Z,1.15
2019-01-02T04:49:56.329Z,1.65
2019-01-02T04:52:58.868Z,1.50
2019-01-02T04:56:01.639Z,1.87
2019-01-02T04:59:04.425Z,1.62
2019-01-02T05:02:07.974Z,1.37
2019-01-02T05:05:10.510Z,2.12
2019-01-02T05:08:10.282Z,1.52
2019-01-02T05:11:13.258Z,1.27
2019-01-02T05:14:18.606Z,2.20
2019-01-02T05:17:21.383Z,1.27
2019-01-02T05:20:24.170Z,2.15
2019-01-02T05:23:26.950Z,1.40
2019-01-02T05:26:29.740Z,2.02
2019-01-02T05:29:32.010Z,1.70
2019-01-02T05:32:35.559Z,1.40
2019-01-02T05:35:34.506Z,1.80
2019-01-02T05:38:37.031Z,1.62
2019-01-02T05:41:40.583Z,2.22
2019-01-02T05:44:43.375Z,1.72
2019-01-02T05:47:47.179Z,2.15
2019-01-02T05:50:49.446Z,2.30
2019-01-02T05:53:51.977Z,1.85
2019-01-02T05:56:54.760Z,1.55
2019-01-02T05:59:57.289Z,2.08
2019-01-02T06:03:00.330Z,2.08
2019-01-02T06:06:02.856Z,1.98
2019-01-02T06:09:05.639Z,1.60
2019-01-02T06:12:08.425Z,1.55
2019-01-02T06:15:10.952Z,2.52
2019-01-02T06:18:13.482Z,1.50
2019-01-02T06:21:17.544Z,1.85
2019-01-02T06:24:16.487Z,1.70
2019-01-02T06:27:19.017Z,1.70
2019-01-02T06:30:22.317Z,1.60
2019-01-02T06:33:21.603Z,1.57
2019-01-02T06:36:24.295Z,1.47
2019-01-02T06:39:27.847Z,1.47
2019-01-02T06:42:31.399Z,2.00
2019-01-02T06:45:34.182Z,1.82
2019-01-02T06:48:36.976Z,1.50
2019-01-02T06:51:39.764Z,1.62
2019-01-02T06:54:42.283Z,1.55
2019-01-02T06:57:45.586Z,1.75
2019-01-02T07:00:52.714Z,1.70
2019-01-02T07:03:55.752Z,1.47
2019-01-02T07:06:58.540Z,1.90
2019-01-02T07:10:01.069Z,1.72
2019-01-02T07:13:03.592Z,1.30
2019-01-02T07:16:07.403Z,1.70
2019-01-02T07:19:10.184Z,1.62
2019-01-02T07:22:12.714Z,1.98
2019-01-02T07:25:15.499Z,1.85
2019-01-02T07:28:18.342Z,1.40
2019-01-02T07:31:21.067Z,1.30
2019-01-02T07:34:27.177Z,1.70
2019-01-02T07:37:41.481Z,1.45
2019-01-02T07:41:01.418Z,1.80
2019-01-02T07:44:15.465Z,1.70
2019-01-02T07:47:29.512Z,2.22
2019-01-02T07:50:41.766Z,1.62
2019-01-02T07:54:13.736Z,1.52
2019-01-02T07:57:26.510Z,1.50
2019-01-02T08:00:46.183Z,2.30
2019-01-02T08:04:18.410Z,2.05
2019-01-02T08:07:31.179Z,1.57
2019-01-02T08:10:48.040Z,1.70
2019-01-02T08:14:20.007Z,1.72
2019-01-02T08:17:34.566Z,1.20
2019-01-02T08:21:06.289Z,1.87
2019-01-02T08:24:20.584Z,2.25
2019-01-02T08:27:40.529Z,1.95
2019-01-02T08:31:00.459Z,2.15
2019-01-02T08:34:14.774Z,2.25
2019-01-02T08:37:38.031Z,1.75
2019-01-02T08:40:54.642Z,2.05
2019-01-02T08:44:12.523Z,1.67
2019-01-02T08:47:26.826Z,1.60
2019-01-02T08:50:43.437Z,1.52
2019-01-02T08:53:58.246Z,1.62
2019-01-02T08:57:12.297Z,1.85
2019-01-02T09:00:44.520Z,1.92
2019-01-02T09:04:04.200Z,1.32
2019-01-02T09:07:24.138Z,1.98
2019-01-02T09:10:45.352Z,1.70
2019-01-02T09:14:06.827Z,1.30
2019-01-02T09:17:26.764Z,2.20
2019-01-02T09:20:49.775Z,2.27
2019-01-02T09:24:03.830Z,1.75
2019-01-02T09:27:17.865Z,1.50
2019-01-02T09:30:43.688Z,2.08
2019-01-02T09:34:00.812Z,1.50
2019-01-02T09:37:13.834Z,2.00
2019-01-02T09:40:28.134Z,1.95
2019-01-02T09:43:40.905Z,2.10
2019-01-02T09:47:04.174Z,1.70
2019-01-02T09:50:16.951Z,2.20
2019-01-02T09:53:31.248Z,1.70
2019-01-02T09:56:50.919Z,1.90
2019-01-02T10:00:03.433Z,1.98
2019-01-02T10:03:23.113Z,2.33
2019-01-02T10:06:37.418Z,2.25
2019-01-02T10:10:09.641Z,1.90
2019-01-02T10:13:23.943Z,2.50
2019-01-02T10:16:32.617Z,1.80
2019-01-02T10:19:46.666Z,2.40
2019-01-02T10:23:15.560Z,1.50
2019-01-02T10:26:34.730Z,2.10
2019-01-02T10:29:54.668Z,2.30
2019-01-02T10:33:12.049Z,1.52
2019-01-02T10:36:25.065Z,1.85
2019-01-02T10:39:48.082Z,1.42
2019-01-02T10:43:11.081Z,1.35
2019-01-02T10:46:25.140Z,2.22
2019-01-02T10:49:48.147Z,2.30
2019-01-02T10:52:57.421Z,1.75
2019-01-02T10:56:10.348Z,1.90
2019-01-02T10:59:39.515Z,2.20
2019-01-02T11:02:53.550Z,1.95
2019-01-02T11:06:11.688Z,1.50
2019-01-02T11:09:40.583Z,1.70
2019-01-02T11:13:03.081Z,2.10
2019-01-02T11:16:23.281Z,1.95
2019-01-02T11:19:38.346Z,1.67
2019-01-02T11:22:52.395Z,2.42
2019-01-02T11:26:06.440Z,2.12
2019-01-02T11:29:35.083Z,2.58
2019-01-02T11:32:50.665Z,2.65
2019-01-02T11:36:01.135Z,1.75
2019-01-02T11:39:17.739Z,1.82
2019-01-02T11:42:31.784Z,2.15
2019-01-02T11:45:29.450Z,1.72
2019-01-02T11:48:31.978Z,1.87
2019-01-02T11:51:30.919Z,1.50
2019-01-02T11:54:30.123Z,2.60
2019-01-02T11:57:32.653Z,2.17
2019-01-02T12:00:35.438Z,1.90
2019-01-02T12:03:38.746Z,1.82
2019-01-02T12:06:42.028Z,2.45
2019-01-02T12:09:44.808Z,2.05
2019-01-02T12:12:47.335Z,2.00
2019-01-02T12:15:49.864Z,1.57
2019-01-02T12:18:52.393Z,1.77
2019-01-02T12:21:55.178Z,1.95
2019-01-02T12:24:57.708Z,1.80
2019-01-02T12:28:01.769Z,1.67
2019-01-02T12:30:58.889Z,1.45
2019-01-02T12:34:02.730Z,1.50
2019-01-02T12:37:05.257Z,1.70
2019-01-02T12:40:07.782Z,1.50
2019-01-02T12:43:10.575Z,2.00
2019-01-02T12:46:13.351Z,1.67
2019-01-02T12:49:16.649Z,1.57
2019-01-02T12:52:19.433Z,1.70
2019-01-02T12:55:22.215Z,1.55
2019-01-02T12:58:25.002Z,1.72
2019-01-02T13:01:44.941Z,1.77
2019-01-02T13:05:02.060Z,1.80
2019-01-02T13:08:21.991Z,1.82
2019-01-02T13:11:30.153Z,1.80
2019-01-02T13:14:55.978Z,1.62
2019-01-02T13:18:09.001Z,1.92
2019-01-02T13:21:21.002Z,1.30
2019-01-02T13:24:40.939Z,1.82
2019-01-02T13:27:57.801Z,1.77
2019-01-02T13:31:11.852Z,1.72
2019-01-02T13:34:38.184Z,1.85
2019-01-02T13:37:51.982Z,2.20
2019-01-02T13:41:04.743Z,1.62
2019-01-02T13:44:21.623Z,1.62
2019-01-02T13:47:35.662Z,2.00
2019-01-02T13:51:01.753Z,1.30
2019-01-02T13:53:59.427Z,1.95
2019-01-02T13:57:01.168Z,1.70
2019-01-02T14:00:04.528Z,1.60
2019-01-02T14:03:09.037Z,1.92
2019-01-02T14:06:15.953Z,1.05
2019-01-02T14:12:36.338Z,1.82
2019-01-02T14:15:38.859Z,1.60
2019-01-02T14:18:41.642Z,1.75
2019-01-02T14:21:44.426Z,1.00
2019-01-02T14:24:47.463Z,1.75
2019-01-02T14:27:49.994Z,1.30
2019-01-02T14:30:52.775Z,1.40
2019-01-02T14:33:55.560Z,1.50
2019-01-02T14:36:58.346Z,1.62
2019-01-02T14:40:02.155Z,1.72
2019-01-02T14:43:04.684Z,2.12
2019-01-02T14:46:07.463Z,1.90
2019-01-02T14:49:10.246Z,1.62
2019-01-02T14:52:13.801Z,2.30
2019-01-02T14:55:17.608Z,1.60
2019-01-02T14:58:20.648Z,1.55
2019-01-02T15:01:23.688Z,1.52
2019-01-02T15:04:28.777Z,1.40
2019-01-02T15:07:31.309Z,1.50
2019-01-02T15:10:35.112Z,1.60
2019-01-02T15:13:37.900Z,1.80
2019-01-02T15:16:44.510Z,1.27
2019-01-02T15:19:44.239Z,1.60
2019-01-02T15:22:44.098Z,1.25
2019-01-02T15:25:45.962Z,1.57
2019-01-02T15:28:48.492Z,1.17
2019-01-02T15:31:52.299Z,1.47
2019-01-02T15:34:55.593Z,1.35
2019-01-02T15:37:58.634Z,1.65
2019-01-02T15:41:01.160Z,1.60
2019-01-02T15:44:04.204Z,1.40
2019-01-02T15:47:08.615Z,1.22
2019-01-02T15:50:09.769Z,1.50
2019-01-02T15:53:13.323Z,1.42
2019-01-02T15:56:16.105Z,1.00
2019-01-02T15:59:27.093Z,1.62
2019-01-02T16:02:30.118Z,1.55
2019-01-02T16:05:34.183Z,1.22
2019-01-02T16:08:37.224Z,1.32
2019-01-02T16:11:40.009Z,1.60
2019-01-02T16:14:43.309Z,1.70
2019-01-02T16:17:46.089Z,1.45
2019-01-02T16:20:48.623Z,1.37
2019-01-02T16:23:51.912Z,1.60
2019-01-02T16:26:54.702Z,1.95
2019-01-02T16:29:57.479Z,1.67
2019-01-02T16:33:01.549Z,1.32
2019-01-02T16:36:04.328Z,1.27
2019-01-02T16:39:06.859Z,1.70
2019-01-02T16:42:10.150Z,1.85
2019-01-02T16:45:12.935Z,1.50
2019-01-02T16:48:15.989Z,1.87
2019-01-02T16:51:18.760Z,1.87
2019-01-02T16:55:17.354Z,2.83
2019-01-02T16:58:19.880Z,7.20
2019-01-02T17:01:22.921Z,5.92
2019-01-02T17:04:26.215Z,2.10
2019-01-02T17:07:28.744Z,2.45
2019-01-02T17:10:31.270Z,2.02
2019-01-02T17:13:34.056Z,1.85
2019-01-02T17:16:37.865Z,2.85
2019-01-02T17:19:40.646Z,2.35
2019-01-02T17:22:43.687Z,2.65
2019-01-02T17:25:46.477Z,1.95
2019-01-02T17:28:50.280Z,3.05
2019-01-02T17:31:53.077Z,2.20
2019-01-02T17:34:55.850Z,1.98
2019-01-02T17:37:58.631Z,2.25
2019-01-02T17:41:03.209Z,3.02
2019-01-02T17:44:06.247Z,3.20
2019-01-02T17:47:08.777Z,2.70
2019-01-02T17:50:11.559Z,2.67
2019-01-02T17:53:14.089Z,2.85
2019-01-02T17:56:18.154Z,2.45
2019-01-02T17:59:21.959Z,2.42
2019-01-02T18:02:24.486Z,2.08
2019-01-02T18:05:27.022Z,2.22
2019-01-02T18:08:31.081Z,2.87
2019-01-02T18:11:35.399Z,2.92
2019-01-02T18:14:38.443Z,3.33
2019-01-02T18:17:41.478Z,2.62
2019-01-02T18:20:45.545Z,4.65
2019-01-02T18:23:48.590Z,2.33
2019-01-02T18:26:51.116Z,3.20
2019-01-02T18:29:53.900Z,2.60
2019-01-02T18:32:57.708Z,2.22
2019-01-02T18:36:00.490Z,2.60
2019-01-02T18:39:03.276Z,3.08
2019-01-02T18:42:06.831Z,2.45
2019-01-02T18:45:05.883Z,3.58
2019-01-02T18:48:09.321Z,2.95
2019-01-02T18:51:12.112Z,3.00
2019-01-02T18:54:14.889Z,5.95
2019-01-02T18:57:17.932Z,2.70
2019-01-02T19:00:21.481Z,2.95
2019-01-02T19:03:26.312Z,2.90
2019-01-02T19:06:31.714Z,2.98
2019-01-02T19:09:38.541Z,2.95
2019-01-02T19:12:41.576Z,2.80
2019-01-02T19:15:44.362Z,2.60
2019-01-02T19:18:48.428Z,2.60
2019-01-02T19:21:51.211Z,4.22
2019-01-02T19:24:50.409Z,3.12
2019-01-02T19:27:53.448Z,2.08
2019-01-02T19:30:57.519Z,3.40
2019-01-02T19:34:00.302Z,2.87
2019-01-02T19:37:02.825Z,5.22
2019-01-02T19:40:06.637Z,3.12
2019-01-02T19:43:09.927Z,2.70
2019-01-02T19:46:12.716Z,3.40
2019-01-02T19:49:15.240Z,2.80
2019-01-02T19:52:17.781Z,3.22
2019-01-02T19:55:20.302Z,3.52
2019-01-02T19:58:23.338Z,2.75
2019-01-02T20:01:26.120Z,3.15
2019-01-02T20:04:31.464Z,3.17
2019-01-02T20:07:33.994Z,2.58
2019-01-02T20:10:37.549Z,2.67
2019-01-02T20:13:40.584Z,3.42
2019-01-02T20:16:45.933Z,2.87
2019-01-02T20:19:48.974Z,2.87
2019-01-02T20:22:51.757Z,2.80
2019-01-02T20:25:55.049Z,3.25
2019-01-02T20:28:57.835Z,3.27
2019-01-02T20:32:04.227Z,2.72
2019-01-02T20:35:03.657Z,3.25
2019-01-02T20:38:06.444Z,2.85
2019-01-02T20:41:22.030Z,2.60
2019-01-02T20:44:25.065Z,3.20
2019-01-02T20:47:30.925Z,3.05
2019-01-02T20:50:33.705Z,3.27
2019-01-02T20:53:36.488Z,2.33
2019-01-02T20:56:40.301Z,2.50
2019-01-02T20:59:42.824Z,2.70
2019-01-02T21:02:54.098Z,2.80
2019-01-02T21:05:57.101Z,3.10
2019-01-02T21:09:00.139Z,2.33
2019-01-02T21:12:02.666Z,2.77
2019-01-02T21:15:05.450Z,2.90
2019-01-02T21:18:07.981Z,2.87
2019-01-02T21:21:10.762Z,2.80
2019-01-02T21:24:14.061Z,2.40
2019-01-02T21:27:16.844Z,3.12
2019-01-02T21:30:19.625Z,3.75
2019-01-02T21:33:19.970Z,4.08
2019-01-02T21:36:22.890Z,2.30
2019-01-02T21:39:25.672Z,3.45
2019-01-02T21:42:28.456Z,2.35
2019-01-02T21:45:32.267Z,3.37
2019-01-02T21:48:41.146Z,2.35
2019-01-02T21:51:37.834Z,3.22
2019-01-02T21:54:41.156Z,2.85
2019-01-02T21:57:43.400Z,3.17
2019-01-02T22:00:46.696Z,2.58
2019-01-02T22:03:49.735Z,3.30
2019-01-02T22:06:52.527Z,2.55
2019-01-02T22:09:55.561Z,2.65
2019-01-02T22:12:58.857Z,2.70
2019-01-02T22:16:01.390Z,3.47
2019-01-02T22:19:04.169Z,2.80
2019-01-02T22:22:06.956Z,3.45
2019-01-02T22:25:09.486Z,2.80
2019-01-02T22:28:12.264Z,3.17
2019-01-02T22:31:15.050Z,3.35
2019-01-02T22:34:18.094Z,3.22
2019-01-02T22:37:20.877Z,3.27
2019-01-02T22:40:23.913Z,2.90
2019-01-02T22:43:26.695Z,3.08
2019-01-02T22:46:29.479Z,2.72
2019-01-02T22:49:32.012Z,3.17
2019-01-02T22:52:34.795Z,3.00
2019-01-02T22:55:33.735Z,3.12
2019-01-02T22:58:36.521Z,3.55
2019-01-02T23:01:39.308Z,2.80
2019-01-02T23:04:42.094Z,3.35
2019-01-02T23:07:44.875Z,3.17
2019-01-02T23:10:47.657Z,3.47
2019-01-02T23:13:50.440Z,2.80
2019-01-02T23:20:09.320Z,3.20
2019-01-02T23:23:12.105Z,3.37
2019-01-02T23:26:14.631Z,3.20
2019-01-02T23:29:17.419Z,2.75
2019-01-02T23:32:20.459Z,2.90
2019-01-02T23:35:24.009Z,3.65
2019-01-02T23:38:26.793Z,2.50
2019-01-02T23:41:29.581Z,2.90
2019-01-02T23:44:32.619Z,2.77
2019-01-02T23:47:36.436Z,2.42
2019-01-02T23:50:39.722Z,3.05
2019-01-02T23:53:53.015Z,2.85
2019-01-02T23:56:55.782Z,3.00
2019-01-02T23:59:58.574Z,2.67
